Time;durP1;ratioP1;P1;durP2;ratioP2;P2;SDS_P1;SDS_P2;PMS_P1;PMS_P2;Temp;Humidity;BMP_temperature;BMP_pressure;BME280_temperature;BME280_humidity;BME280_pressure;Samples;Min_cycle;Max_cycle;Signal;HPM_P1;HPM_P2
2022/03/28 00:00:31;;;;;;;13.47;7.50;;;;;;;8.37;nan;99005.88;5054395;28;20664;-71
2022/03/28 00:02:58;;;;;;;13.13;7.30;;;;;;;8.38;nan;99007.50;5053592;28;20570;-71
2022/03/28 00:05:25;;;;;;;11.00;7.50;;;;;;;8.34;nan;98998.28;5053802;28;20247;-71
2022/03/28 00:07:51;;;;;;;12.07;7.83;;;;;;;8.34;nan;99000.91;5053593;28;20814;-71
2022/03/28 00:10:17;;;;;;;14.53;7.67;;;;;;;8.33;nan;99002.75;5052972;28;20205;-71
2022/03/28 00:12:44;;;;;;;12.63;7.60;;;;;;;8.29;nan;98992.69;5054464;28;20208;-71
2022/03/28 00:15:10;;;;;;;12.77;7.60;;;;;;;8.27;nan;99000.00;5054344;28;20213;-71
2022/03/28 00:17:37;;;;;;;15.00;7.30;;;;;;;8.19;nan;98997.41;5053986;28;20237;-72
2022/03/28 00:20:11;;;;;;;12.07;7.53;;;;;;;8.13;nan;98991.00;5054309;28;20577;-71
2022/03/28 00:22:41;;;;;;;9.87;7.77;;;;;;;8.10;nan;98990.56;5053866;28;20205;-71
2022/03/28 00:25:10;;;;;;;12.23;7.43;;;;;;;8.08;nan;98979.28;5053382;28;20213;-70
2022/03/28 00:27:36;;;;;;;11.40;7.07;;;;;;;8.04;nan;98989.44;5054133;28;20222;-71
2022/03/28 00:30:07;;;;;;;9.10;7.33;;;;;;;8.04;nan;98988.59;5054100;28;20263;-71
2022/03/28 00:32:34;;;;;;;14.10;7.13;;;;;;;8.13;nan;98982.22;5053254;28;20197;-71
2022/03/28 00:35:00;;;;;;;11.53;7.77;;;;;;;8.11;nan;98978.94;5037165;28;20661;-71
2022/03/28 00:37:28;;;;;;;10.50;7.53;;;;;;;8.04;nan;98983.31;5038872;28;20228;-71
2022/03/28 00:39:54;;;;;;;11.93;7.80;;;;;;;7.94;nan;98965.06;5054855;28;20205;-70
2022/03/28 00:42:21;;;;;;;10.10;7.50;;;;;;;7.87;nan;98965.94;5053855;28;20205;-70
2022/03/28 00:44:47;;;;;;;12.60;7.63;;;;;;;7.85;nan;98970.59;5054599;28;20219;-70
2022/03/28 00:47:13;;;;;;;15.77;7.20;;;;;;;7.83;nan;98959.38;5053065;28;20222;-70
2022/03/28 00:49:40;;;;;;;12.37;7.90;;;;;;;7.82;nan;98961.19;5052648;28;20292;-71
2022/03/28 00:52:07;;;;;;;10.40;7.63;;;;;;;7.85;nan;98952.06;5053755;28;20209;-71
2022/03/28 00:54:34;;;;;;;15.90;7.57;;;;;;;7.87;nan;98961.47;5053648;28;20213;-71
2022/03/28 00:57:01;;;;;;;11.37;7.93;;;;;;;7.85;nan;98952.06;5053031;28;20233;-70
2022/03/28 00:59:31;;;;;;;17.53;8.40;;;;;;;7.82;nan;98957.69;5053339;28;20247;-71
2022/03/28 01:01:58;;;;;;;13.23;8.53;;;;;;;7.71;nan;98956.34;5067491;28;20248;-70
2022/03/28 01:04:24;;;;;;;13.63;8.67;;;;;;;7.67;nan;98954.22;5052804;28;20217;-71
2022/03/28 01:06:51;;;;;;;14.87;8.90;;;;;;;7.58;nan;98947.34;5052345;28;20225;-71
2022/03/28 01:09:19;;;;;;;13.20;8.30;;;;;;;7.55;nan;98956.47;5053537;28;20288;-71
2022/03/28 01:11:48;;;;;;;11.53;8.20;;;;;;;7.53;nan;98952.34;5067750;28;20201;-71
2022/03/28 01:14:16;;;;;;;13.67;8.37;;;;;;;7.53;nan;98949.69;5052621;28;20201;-70
2022/03/28 01:19:24;;;;;;;18.10;8.63;;;;;;;7.52;nan;98948.06;5053032;28;20212;-71
2022/03/28 01:21:52;;;;;;;14.67;8.40;;;;;;;7.53;nan;98937.31;5052225;28;20205;-71
2022/03/28 01:24:18;;;;;;;11.57;8.50;;;;;;;7.55;nan;98926.53;5052722;28;20224;-71
2022/03/28 01:26:46;;;;;;;16.07;9.17;;;;;;;7.50;nan;98935.00;5051655;28;20237;-71
2022/03/28 01:29:14;;;;;;;14.03;9.30;;;;;;;7.45;nan;98936.53;5053141;28;20585;-71
2022/03/28 01:31:41;;;;;;;14.33;8.57;;;;;;;7.40;nan;98926.50;5052155;28;20201;-71
2022/03/28 01:34:16;;;;;;;13.70;8.70;;;;;;;7.38;nan;98931.13;5052423;28;20206;-71
2022/03/28 01:36:44;;;;;;;12.50;8.70;;;;;;;7.37;nan;98926.84;5052873;28;20220;-71
2022/03/28 01:39:11;;;;;;;13.37;8.20;;;;;;;7.34;nan;98931.66;5053103;28;20233;-70
2022/03/28 01:41:37;;;;;;;16.50;9.20;;;;;;;7.33;nan;98927.38;5051040;28;20206;-71
2022/03/28 01:44:05;;;;;;;15.23;8.87;;;;;;;7.30;nan;98925.09;5052101;28;20563;-71
2022/03/28 01:46:31;;;;;;;12.80;8.47;;;;;;;7.28;nan;98924.44;5052064;28;20307;-71
2022/03/28 01:48:57;;;;;;;13.80;8.63;;;;;;;7.24;nan;98923.97;5052661;28;20206;-70
2022/03/28 01:51:24;;;;;;;13.17;8.90;;;;;;;7.23;nan;98908.25;5051552;28;20209;-70
2022/03/28 01:53:51;;;;;;;12.77;8.43;;;;;;;7.22;nan;98917.19;5052352;28;20213;-70
2022/03/28 01:56:17;;;;;;;14.97;9.03;;;;;;;7.25;nan;98912.41;5050643;28;20212;-70
2022/03/28 01:58:43;;;;;;;15.37;9.17;;;;;;;7.24;nan;98917.88;5051509;28;20197;-70
2022/03/28 02:01:10;;;;;;;15.63;9.30;;;;;;;7.23;nan;98911.75;5052588;28;20213;-70
2022/03/28 02:03:36;;;;;;;14.87;8.43;;;;;;;7.21;nan;98905.81;5050449;28;20201;-71
2022/03/28 02:06:06;;;;;;;13.33;8.17;;;;;;;7.20;nan;98906.00;5051675;28;20217;-71
2022/03/28 02:08:34;;;;;;;13.93;8.50;;;;;;;7.20;nan;98903.34;5052584;28;20209;-71
2022/03/28 02:11:00;;;;;;;14.87;9.03;;;;;;;7.18;nan;98905.31;5051468;28;20202;-70
2022/03/28 02:13:27;;;;;;;16.20;8.80;;;;;;;7.18;nan;98900.88;5050878;28;20205;-70
2022/03/28 02:15:53;;;;;;;13.57;8.17;;;;;;;7.14;nan;98904.03;5053380;28;20287;-70
2022/03/28 02:18:19;;;;;;;12.27;8.93;;;;;;;7.11;nan;98899.13;5051531;28;20236;-71
2022/03/28 02:20:46;;;;;;;13.13;8.90;;;;;;;7.04;nan;98903.44;5052517;28;20205;-71
2022/03/28 02:23:12;;;;;;;16.93;9.67;;;;;;;7.03;nan;98894.72;5051263;28;20212;-71
2022/03/28 02:25:39;;;;;;;13.57;9.50;;;;;;;7.02;nan;98900.19;5051561;28;20221;-71
2022/03/28 02:28:06;;;;;;;20.97;9.10;;;;;;;6.97;nan;98894.59;5052224;28;20229;-71
2022/03/28 02:30:33;;;;;;;14.67;9.10;;;;;;;6.96;nan;98892.94;5050576;28;20620;-71
2022/03/28 02:32:59;;;;;;;14.63;9.87;;;;;;;6.91;nan;98893.47;5042056;28;20676;-71
2022/03/28 02:35:26;;;;;;;13.90;8.73;;;;;;;6.84;nan;98897.78;5053200;28;20205;-71
2022/03/28 02:37:52;;;;;;;13.00;8.77;;;;;;;6.87;nan;98886.09;5049922;28;20604;-71
2022/03/28 02:40:18;;;;;;;15.87;8.97;;;;;;;6.79;nan;98886.13;5052257;28;20205;-71
2022/03/28 02:42:45;;;;;;;12.60;8.90;;;;;;;6.75;nan;98884.81;5050294;28;20208;-71
2022/03/28 02:45:11;;;;;;;14.83;9.47;;;;;;;6.74;nan;98891.13;5052774;28;20217;-71
2022/03/28 02:47:38;;;;;;;16.00;9.47;;;;;;;6.71;nan;98891.44;5051212;28;20225;-71
2022/03/28 02:50:05;;;;;;;14.17;9.47;;;;;;;6.69;nan;98890.81;5041934;28;20285;-70
2022/03/28 02:52:31;;;;;;;14.93;8.50;;;;;;;6.61;nan;98878.44;5037853;28;20283;-70
2022/03/28 02:54:57;;;;;;;14.77;8.60;;;;;;;6.59;nan;98883.09;5052992;28;20211;-71
2022/03/28 02:57:24;;;;;;;11.80;9.23;;;;;;;6.55;nan;98879.16;5052568;28;20233;-71
2022/03/28 02:59:50;;;;;;;14.90;8.93;;;;;;;6.48;nan;98875.56;5052652;28;20220;-71
2022/03/28 03:02:16;;;;;;;14.60;9.17;;;;;;;6.43;nan;98871.81;5049066;28;20233;-71
2022/03/28 03:04:43;;;;;;;13.53;8.70;;;;;;;6.44;nan;98876.06;5033583;28;20230;-71
2022/03/28 03:07:09;;;;;;;13.80;8.80;;;;;;;6.42;nan;98870.16;5044399;28;20683;-71
2022/03/28 03:09:36;;;;;;;13.67;9.20;;;;;;;6.39;nan;98870.50;5056593;28;20259;-70
2022/03/28 03:12:02;;;;;;;13.37;9.27;;;;;;;6.39;nan;98870.50;5055701;28;20217;-71
2022/03/28 03:14:28;;;;;;;18.23;9.00;;;;;;;6.43;nan;98877.09;5056426;28;20208;-71
2022/03/28 03:16:55;;;;;;;13.20;8.80;;;;;;;6.39;nan;98867.84;5056231;28;20233;-71
2022/03/28 03:19:21;;;;;;;14.30;8.97;;;;;;;6.39;nan;98862.56;5054376;28;20209;-71
2022/03/28 03:21:48;;;;;;;15.97;8.83;;;;;;;6.37;nan;98861.91;5055449;28;20256;-70
2022/03/28 03:24:14;;;;;;;17.00;9.37;;;;;;;6.32;nan;98856.31;5054216;28;20201;-70
2022/03/28 03:26:41;;;;;;;15.03;8.87;;;;;;;6.34;nan;98854.34;5053858;28;20645;-71
2022/03/28 03:29:08;;;;;;;14.73;8.87;;;;;;;6.27;nan;98861.31;5055211;28;20202;-71
2022/03/28 03:31:34;;;;;;;13.00;9.33;;;;;;;6.20;nan;98855.88;5054530;28;20258;-70
2022/03/28 03:34:01;;;;;;;13.27;8.30;;;;;;;6.14;nan;98861.84;5054494;28;20304;-71
2022/03/28 03:36:27;;;;;;;15.77;9.37;;;;;;;6.14;nan;98855.75;5055232;28;20228;-71
2022/03/28 03:38:55;;;;;;;14.07;8.83;;;;;;;6.13;nan;98854.94;5053240;28;20211;-71
2022/03/28 03:41:21;;;;;;;13.50;9.03;;;;;;;6.06;nan;98858.44;5055428;28;20566;-71
2022/03/28 03:43:47;;;;;;;18.23;9.57;;;;;;;6.09;nan;98856.28;5053924;28;20232;-71
2022/03/28 03:46:14;;;;;;;15.67;8.50;;;;;;;6.07;nan;98862.72;5055554;28;20249;-71
2022/03/28 03:48:40;;;;;;;13.17;8.00;;;;;;;6.03;nan;98856.13;5052986;28;20296;-71
2022/03/28 03:51:07;;;;;;;15.10;8.93;;;;;;;6.03;nan;98864.06;5055390;28;20205;-70
2022/03/28 03:53:34;;;;;;;14.00;8.23;;;;;;;5.98;nan;98871.66;5053912;28;20204;-70
2022/03/28 03:56:00;;;;;;;13.27;9.20;;;;;;;6.02;nan;98859.78;5054776;28;20228;-71
2022/03/28 03:58:28;;;;;;;12.17;8.20;;;;;;;6.04;nan;98855.13;5053337;28;20275;-70
2022/03/28 04:00:54;;;;;;;12.53;8.27;;;;;;;6.08;nan;98864.34;5054684;28;20209;-71
2022/03/28 04:03:21;;;;;;;13.10;8.83;;;;;;;6.01;nan;98855.50;5053440;28;20608;-71
2022/03/28 04:05:47;;;;;;;15.43;8.50;;;;;;;5.98;nan;98864.53;5054916;28;20228;-70
2022/03/28 04:08:13;;;;;;;17.77;8.90;;;;;;;5.91;nan;98857.47;5054981;28;20737;-71
2022/03/28 04:10:42;;;;;;;14.00;8.67;;;;;;;5.87;nan;98857.00;5054100;28;20209;-70
2022/03/28 04:13:10;;;;;;;16.07;8.43;;;;;;;5.92;nan;98848.59;5053092;28;20210;-70
2022/03/28 04:15:36;;;;;;;15.93;8.87;;;;;;;5.88;nan;98849.94;5053012;28;20208;-71
2022/03/28 04:18:03;;;;;;;14.20;8.17;;;;;;;5.85;nan;98850.25;5054666;28;20576;-71
2022/03/28 04:20:29;;;;;;;18.07;8.60;;;;;;;5.80;nan;98852.56;5054205;28;20202;-70
2022/03/28 04:22:56;;;;;;;14.50;8.17;;;;;;;5.80;nan;98850.78;5052911;28;20255;-70
2022/03/28 04:25:22;;;;;;;16.93;8.50;;;;;;;5.78;nan;98843.97;5053944;28;20210;-70
2022/03/28 04:27:49;;;;;;;12.37;8.57;;;;;;;5.78;nan;98851.88;5053742;28;20236;-70
2022/03/28 04:30:15;;;;;;;14.40;8.70;;;;;;;5.78;nan;98843.97;5053486;28;20205;-71
2022/03/28 04:32:42;;;;;;;13.67;7.97;;;;;;;5.73;nan;98841.84;5053531;28;20209;-71
2022/03/28 04:35:10;;;;;;;14.80;8.33;;;;;;;5.71;nan;98841.22;5052355;28;20227;-71
2022/03/28 04:37:39;;;;;;;13.80;8.47;;;;;;;5.78;nan;98849.25;5054614;28;20221;-70
2022/03/28 04:40:07;;;;;;;13.43;8.20;;;;;;;5.76;nan;98845.97;5052316;28;20210;-70
2022/03/28 04:42:34;;;;;;;14.63;8.90;;;;;;;5.73;nan;98841.84;5053002;28;20201;-71
2022/03/28 04:45:00;;;;;;;14.13;8.27;;;;;;;5.70;nan;98842.19;5052432;28;20223;-71
2022/03/28 04:47:27;;;;;;;15.03;8.97;;;;;;;5.67;nan;98849.63;5054190;28;20587;-70
2022/03/28 04:49:53;;;;;;;12.23;7.70;;;;;;;5.69;nan;98847.63;5051475;28;20666;-70
2022/03/28 04:52:19;;;;;;;12.90;8.00;;;;;;;5.65;nan;98844.50;5053494;28;20686;-71
2022/03/28 04:54:46;;;;;;;13.10;8.40;;;;;;;5.61;nan;98853.75;5052208;28;20648;-70
2022/03/28 04:57:12;;;;;;;16.20;8.17;;;;;;;5.57;nan;98851.63;5053109;28;20247;-70
2022/03/28 04:59:38;;;;;;;16.43;8.70;;;;;;;5.57;nan;98841.06;5052116;28;20213;-70
2022/03/28 05:02:06;;;;;;;13.70;8.67;;;;;;;5.55;nan;98848.31;5053831;28;20231;-71
2022/03/28 05:04:32;;;;;;;14.53;8.60;;;;;;;5.57;nan;98849.00;5053454;28;20259;-71
2022/03/28 05:07:00;;;;;;;15.20;8.50;;;;;;;5.57;nan;98857.69;5053056;28;20239;-70
2022/03/28 05:09:26;;;;;;;13.60;8.17;;;;;;;5.58;nan;98846.19;5053208;28;20216;-70
2022/03/28 05:11:53;;;;;;;16.87;8.77;;;;;;;5.56;nan;98853.44;5053013;28;20205;-70
2022/03/28 05:14:22;;;;;;;16.63;8.87;;;;;;;5.58;nan;98853.25;5053281;28;20233;-71
2022/03/28 05:16:48;;;;;;;12.83;7.77;;;;;;;5.56;nan;98852.63;5052650;28;20260;-70
2022/03/28 05:19:15;;;;;;;14.30;8.90;;;;;;;5.59;nan;98845.19;5052523;28;20205;-70
2022/03/28 05:21:41;;;;;;;16.50;7.80;;;;;;;5.61;nan;98848.47;5052121;28;20209;-70
2022/03/28 05:24:08;;;;;;;14.10;8.10;;;;;;;5.64;nan;98847.31;5051966;28;20564;-70
2022/03/28 05:26:34;;;;;;;15.00;8.60;;;;;;;5.63;nan;98845.66;5050011;28;20233;-70
2022/03/28 05:29:01;;;;;;;15.73;8.63;;;;;;;5.64;nan;98849.94;5044458;28;20210;-70
2022/03/28 05:31:27;;;;;;;14.27;8.53;;;;;;;5.65;nan;98846.34;5052586;28;20202;-70
2022/03/28 05:33:54;;;;;;;15.93;8.57;;;;;;;5.69;nan;98850.25;5052560;28;20201;-71
2022/03/28 05:36:20;;;;;;;15.27;8.80;;;;;;;5.73;nan;98846.28;5051880;28;20198;-70
2022/03/28 05:38:47;;;;;;;12.53;8.23;;;;;;;5.76;nan;98844.16;5051955;28;20664;-70
2022/03/28 05:41:13;;;;;;;15.27;8.57;;;;;;;5.86;nan;98843.97;5051411;28;20201;-71
2022/03/28 05:43:40;;;;;;;16.80;8.30;;;;;;;5.83;nan;98839.06;5052684;28;20212;-71
2022/03/28 05:46:07;;;;;;;15.87;9.03;;;;;;;5.87;nan;98842.97;5051256;28;20202;-70
2022/03/28 05:48:34;;;;;;;15.53;8.43;;;;;;;5.91;nan;98844.28;5053023;28;20209;-70
2022/03/28 05:51:01;;;;;;;14.67;8.90;;;;;;;5.99;nan;98849.53;5051059;28;20664;-70
2022/03/28 05:53:27;;;;;;;15.63;9.10;;;;;;;6.10;nan;98836.00;5052902;28;20235;-70
2022/03/28 05:55:53;;;;;;;18.13;9.00;;;;;;;6.16;nan;98840.56;5050254;28;20209;-70
2022/03/28 05:58:20;;;;;;;17.07;8.67;;;;;;;6.22;nan;98839.88;5052426;28;20236;-71
2022/03/28 06:00:46;;;;;;;17.07;8.23;;;;;;;6.23;nan;98838.88;5052165;28;20205;-70
2022/03/28 06:03:13;;;;;;;15.37;8.50;;;;;;;6.27;nan;98846.28;5052137;28;20202;-70
2022/03/28 06:05:39;;;;;;;15.97;8.03;;;;;;;6.41;nan;98837.63;5051987;28;20419;-71
2022/03/28 06:08:07;;;;;;;13.37;8.77;;;;;;;6.60;nan;98846.94;5052611;28;20312;-70
2022/03/28 06:10:34;;;;;;;15.87;8.50;;;;;;;6.58;nan;98843.63;5051345;28;20201;-71
2022/03/28 06:13:01;;;;;;;24.43;9.07;;;;;;;6.58;nan;98851.56;5051753;28;20216;-71
2022/03/28 06:15:29;;;;;;;14.90;8.67;;;;;;;6.61;nan;98859.16;5050897;28;20212;-71
2022/03/28 06:17:56;;;;;;;18.23;9.60;;;;;;;6.67;nan;98843.44;5053171;28;20567;-71
2022/03/28 06:20:23;;;;;;;15.73;9.23;;;;;;;6.79;nan;98847.28;5050403;28;20663;-71
2022/03/28 06:22:49;;;;;;;10.80;8.03;;;;;;;6.85;nan;98856.34;5052891;28;20232;-71
2022/03/28 06:25:16;;;;;;;14.67;9.77;;;;;;;6.86;nan;98852.69;5051281;28;20206;-71
2022/03/28 06:27:42;;;;;;;18.97;9.30;;;;;;;6.98;nan;98848.66;5052449;28;20790;-71
2022/03/28 06:30:13;;;;;;;18.30;10.00;;;;;;;7.01;nan;98845.66;5049987;28;20198;-71
2022/03/28 06:32:40;;;;;;;15.60;8.83;;;;;;;7.01;nan;98845.66;5040862;28;20206;-71
2022/03/28 06:35:08;;;;;;;14.67;9.13;;;;;;;7.06;nan;98852.03;5042981;28;20205;-71
2022/03/28 06:37:35;;;;;;;19.33;9.30;;;;;;;7.12;nan;98855.81;5052257;28;20225;-71
2022/03/28 06:40:03;;;;;;;20.00;8.97;;;;;;;7.24;nan;98862.31;5052081;28;20201;-71
2022/03/28 06:42:31;;;;;;;13.70;8.43;;;;;;;7.22;nan;98853.72;5056680;28;20236;-72
2022/03/28 06:44:57;;;;;;;15.90;9.10;;;;;;;7.25;nan;98853.38;5054387;28;20213;-72
2022/03/28 06:47:24;;;;;;;13.87;8.40;;;;;;;7.28;nan;98851.19;5055999;28;20233;-71
2022/03/28 06:49:50;;;;;;;16.53;8.83;;;;;;;7.25;nan;98853.38;5052482;28;20201;-71
2022/03/28 06:52:17;;;;;;;16.63;8.43;;;;;;;7.28;nan;98848.56;5055637;28;20212;-71
2022/03/28 06:54:43;;;;;;;17.70;9.50;;;;;;;7.34;nan;98847.03;5056358;28;20215;-71
2022/03/28 06:57:10;;;;;;;19.97;9.33;;;;;;;7.41;nan;98853.22;5055864;28;20237;-71
2022/03/28 06:59:37;;;;;;;17.73;9.30;;;;;;;7.48;nan;98851.53;5056407;28;20209;-71
2022/03/28 07:02:03;;;;;;;15.23;8.47;;;;;;;7.53;nan;98849.16;5056003;28;20734;-71
2022/03/28 07:04:30;;;;;;;14.40;8.90;;;;;;;7.68;nan;98844.69;5055580;28;20202;-71
2022/03/28 07:06:57;;;;;;;15.23;9.87;;;;;;;7.71;nan;98844.34;5047870;28;20232;-71
2022/03/28 07:09:23;;;;;;;20.47;9.77;;;;;;;7.83;nan;98838.41;5055905;28;20205;-70
2022/03/28 07:11:49;;;;;;;15.40;9.30;;;;;;;7.91;nan;98840.97;5056143;28;20205;-70
2022/03/28 07:14:17;;;;;;;16.03;9.40;;;;;;;7.97;nan;98834.94;5055658;28;20227;-70
2022/03/28 07:16:43;;;;;;;16.57;9.43;;;;;;;8.26;nan;98840.25;5055517;28;20233;-71
2022/03/28 07:19:10;;;;;;;18.57;10.27;;;;;;;8.30;nan;98833.56;5055967;28;20209;-70
2022/03/28 07:21:36;;;;;;;17.10;9.63;;;;;;;8.44;nan;98843.31;5055883;28;20208;-70
2022/03/28 07:24:03;;;;;;;14.27;9.37;;;;;;;8.50;nan;98847.03;5055645;28;20205;-71
2022/03/28 07:26:30;;;;;;;16.07;9.53;;;;;;;8.62;nan;98843.72;5055497;28;20225;-70
2022/03/28 07:29:00;;;;;;;15.17;9.97;;;;;;;8.64;nan;98843.53;5055818;28;20213;-70
2022/03/28 07:31:26;;;;;;;16.00;9.37;;;;;;;8.62;nan;98845.53;5055476;28;20205;-70
2022/03/28 07:34:29;;;;;;;18.57;10.70;;;;;;;8.74;nan;98844.06;5055415;28;20209;-70
2022/03/28 07:36:39;;;;;;;16.60;10.20;;;;;;;9.03;nan;98841.28;5054579;28;20758;-70
2022/03/28 07:39:05;;;;;;;22.63;9.83;;;;;;;9.15;nan;98832.59;5055327;28;20201;-70
2022/03/28 07:41:32;;;;;;;18.63;10.40;;;;;;;9.32;nan;98839.28;5055299;28;20212;-70
2022/03/28 07:43:58;;;;;;;17.20;10.23;;;;;;;9.26;nan;98840.06;5055151;28;20201;-71
2022/03/28 07:46:24;;;;;;;16.73;10.30;;;;;;;9.24;nan;98835.97;5054736;28;20221;-71
2022/03/28 07:48:51;;;;;;;19.77;10.50;;;;;;;9.35;nan;98830.94;5054228;28;20598;-71
2022/03/28 07:51:17;;;;;;;17.47;10.27;;;;;;;9.46;nan;98830.41;5053908;28;20323;-70
2022/03/28 07:53:43;;;;;;;19.97;10.27;;;;;;;9.67;nan;98821.56;5054154;28;20660;-70
2022/03/28 07:56:10;;;;;;;19.07;10.33;;;;;;;9.66;nan;98817.28;5054807;28;20285;-70
2022/03/28 07:58:36;;;;;;;15.00;10.17;;;;;;;9.82;nan;98823.09;5054866;28;20282;-71
2022/03/28 08:01:02;;;;;;;18.07;10.30;;;;;;;9.84;nan;98817.59;5054838;28;20216;-70
2022/03/28 08:03:30;;;;;;;17.93;9.97;;;;;;;9.82;nan;98817.78;5054947;28;20569;-70
2022/03/28 08:05:56;;;;;;;21.17;11.10;;;;;;;9.88;nan;98816.19;5054620;28;20544;-70
2022/03/28 08:08:23;;;;;;;18.80;10.80;;;;;;;10.18;nan;98812.31;5054921;28;20230;-70
2022/03/28 08:10:49;;;;;;;18.17;10.50;;;;;;;10.23;nan;98807.22;5054893;28;20551;-70
2022/03/28 08:13:15;;;;;;;17.37;10.47;;;;;;;10.25;nan;98807.81;5055061;28;20216;-70
2022/03/28 08:15:42;;;;;;;20.40;10.80;;;;;;;10.36;nan;98812.56;5054778;28;20209;-71
2022/03/28 08:18:08;;;;;;;20.47;11.13;;;;;;;10.59;nan;98805.88;5054896;28;20321;-70
2022/03/28 08:20:34;;;;;;;21.33;11.73;;;;;;;10.81;nan;98806.53;5054913;28;20208;-70
2022/03/28 08:23:02;;;;;;;18.47;10.70;;;;;;;10.86;nan;98804.13;5054972;28;20206;-70
2022/03/28 08:25:30;;;;;;;17.00;10.73;;;;;;;11.13;nan;98802.28;5054791;28;20209;-70
2022/03/28 08:27:57;;;;;;;20.47;11.37;;;;;;;10.97;nan;98798.19;5054318;28;20238;-70
2022/03/28 08:30:23;;;;;;;17.07;11.27;;;;;;;11.29;nan;98805.38;5054476;28;20205;-70
2022/03/28 08:32:50;;;;;;;19.20;11.60;;;;;;;11.37;nan;98796.34;5054286;28;20205;-70
2022/03/28 08:35:17;;;;;;;18.70;11.80;;;;;;;11.45;nan;98796.97;5054516;28;20209;-70
2022/03/28 08:37:44;;;;;;;16.73;11.17;;;;;;;11.70;nan;98792.66;5054048;28;20221;-70
2022/03/28 08:40:10;;;;;;;20.37;11.63;;;;;;;11.78;nan;98795.09;5054666;28;20216;-70
2022/03/28 08:42:39;;;;;;;16.53;11.50;;;;;;;11.87;nan;98788.50;5054358;28;20209;-70
2022/03/28 08:45:08;;;;;;;20.37;12.47;;;;;;;11.87;nan;98785.84;5054157;28;20771;-71
2022/03/28 08:47:38;;;;;;;20.30;11.97;;;;;;;12.20;nan;98789.22;5054185;28;20233;-71
2022/03/28 08:50:05;;;;;;;20.23;10.97;;;;;;;12.32;nan;98792.03;5053112;28;20220;-70
2022/03/28 08:52:31;;;;;;;22.67;12.37;;;;;;;12.38;nan;98793.88;5054014;28;20695;-70
2022/03/28 08:54:58;;;;;;;19.13;11.83;;;;;;;12.28;nan;98783.66;5053967;28;20667;-70
2022/03/28 08:57:24;;;;;;;21.63;11.93;;;;;;;12.35;nan;98792.41;5053759;28;20719;-72
2022/03/28 08:59:50;;;;;;;18.87;12.07;;;;;;;12.55;nan;98782.50;5054299;28;20209;-71
2022/03/28 09:02:46;;;;;;;21.23;12.43;;;;;;;12.62;nan;98783.25;5054311;28;20201;-71
2022/03/28 09:05:17;;;;;;;21.80;12.57;;;;;;;12.63;nan;98781.41;5054130;28;20187;-72
2022/03/28 09:07:44;;;;;;;19.07;12.37;;;;;;;12.59;nan;98775.69;5053813;28;20236;-72
2022/03/28 09:10:17;;;;;;;21.37;12.90;;;;;;;12.77;nan;98781.13;5053613;28;20599;-72
2022/03/28 09:13:06;;;;;;;22.17;12.53;;;;;;;12.99;nan;98774.44;5053913;28;20211;-71
2022/03/28 09:15:57;;;;;;;20.03;12.27;;;;;;;13.26;nan;98762.53;5053760;28;20221;-71
2022/03/28 09:18:31;;;;;;;19.43;12.10;;;;;;;13.41;nan;98764.84;5053936;28;20232;-73
2022/03/28 09:21:02;;;;;;;21.80;13.03;;;;;;;13.20;nan;98752.69;5053684;28;20207;-72
2022/03/28 09:23:31;;;;;;;17.33;12.07;;;;;;;13.49;nan;98743.19;5053596;28;20216;-72
2022/03/28 09:25:58;;;;;;;22.43;14.20;;;;;;;13.93;nan;98742.94;5053770;28;20205;-72
2022/03/28 09:28:48;;;;;;;23.60;13.80;;;;;;;14.09;nan;98734.28;5053383;28;20235;-72
2022/03/28 09:31:23;;;;;;;21.20;13.17;;;;;;;14.17;nan;98742.84;5053661;28;20201;-72
2022/03/28 09:34:10;;;;;;;18.47;12.67;;;;;;;14.26;nan;98730.00;5053165;28;20223;-72
2022/03/28 09:36:42;;;;;;;25.80;13.63;;;;;;;14.48;nan;98731.94;5052832;28;20278;-73
2022/03/28 09:39:12;;;;;;;21.43;12.90;;;;;;;14.55;nan;98730.00;5053439;28;20223;-72
2022/03/28 09:41:39;;;;;;;23.20;13.83;;;;;;;14.40;nan;98721.56;5054129;28;20228;-72
2022/03/28 09:44:07;;;;;;;23.33;14.27;;;;;;;14.52;nan;98719.72;5052989;28;20205;-72
2022/03/28 09:46:37;;;;;;;23.67;14.10;;;;;;;14.85;nan;98721.94;5052879;28;20268;-72
2022/03/28 09:49:05;;;;;;;24.40;14.10;;;;;;;14.90;nan;98709.50;5052894;28;20221;-72
2022/03/28 09:51:35;;;;;;;24.07;14.60;;;;;;;14.82;nan;98707.16;5053087;28;20201;-73
2022/03/28 09:54:01;;;;;;;21.70;13.63;;;;;;;15.15;nan;98701.25;5052879;28;20664;-72
2022/03/28 09:56:28;;;;;;;20.00;14.03;;;;;;;15.32;nan;98699.50;5052851;28;20236;-72
2022/03/28 09:59:00;;;;;;;23.37;14.10;;;;;;;15.33;nan;98699.25;5053088;28;20248;-72
2022/03/28 10:01:32;;;;;;;19.70;13.27;;;;;;;15.28;nan;98695.69;5052925;28;20640;-72
2022/03/28 10:04:03;;;;;;;27.53;14.17;;;;;;;15.76;nan;98691.69;5053229;28;20209;-72
2022/03/28 10:06:30;;;;;;;25.23;13.93;;;;;;;15.94;nan;98688.84;5052914;28;20711;-72
2022/03/28 10:08:57;;;;;;;23.70;14.17;;;;;;;16.16;nan;98691.69;5052766;28;20699;-72
2022/03/28 10:11:25;;;;;;;24.83;14.53;;;;;;;15.97;nan;98693.72;5052837;28;20205;-72
2022/03/28 10:13:52;;;;;;;27.17;15.50;;;;;;;16.11;nan;98689.69;5054822;28;20216;-72
2022/03/28 10:16:18;;;;;;;24.20;15.33;;;;;;;16.38;nan;98679.22;5059047;28;20299;-72
2022/03/28 10:18:46;;;;;;;23.50;15.03;;;;;;;16.56;nan;98671.78;5059202;28;20664;-71
2022/03/28 10:21:24;;;;;;;26.93;15.40;;;;;;;16.56;nan;98671.00;5058884;28;20205;-72
2022/03/28 10:24:04;;;;;;;22.00;14.80;;;;;;;16.77;nan;98662.22;5058559;28;20276;-72
2022/03/28 10:26:35;;;;;;;21.03;14.77;;;;;;;16.62;nan;98661.97;5059559;28;20228;-72
2022/03/28 10:29:09;;;;;;;24.63;14.60;;;;;;;16.72;nan;98652.22;5059119;28;20213;-72
2022/03/28 10:31:53;;;;;;;22.47;14.83;;;;;;;17.00;nan;98649.44;5059622;28;20197;-72
2022/03/28 10:34:56;;;;;;;25.77;14.60;;;;;;;17.29;nan;98642.88;5060085;28;20655;-72
2022/03/28 10:37:41;;;;;;;22.70;15.03;;;;;;;16.86;nan;98650.84;5059462;28;20220;-72
2022/03/28 10:40:13;;;;;;;23.40;15.83;;;;;;;17.10;nan;98636.16;5059622;28;20227;-71
2022/03/28 10:42:55;;;;;;;24.80;16.03;;;;;;;17.30;nan;98628.41;5059586;28;20522;-72
2022/03/28 10:45:31;;;;;;;23.03;15.23;;;;;;;17.57;nan;98620.44;5059234;28;20235;-72
2022/03/28 10:47:59;;;;;;;20.70;14.90;;;;;;;17.81;nan;98619.13;5059230;28;20232;-71
2022/03/28 10:50:29;;;;;;;24.37;15.07;;;;;;;17.37;nan;98620.97;5059007;28;20209;-71
2022/03/28 10:53:29;;;;;;;20.90;14.70;;;;;;;17.52;nan;98612.31;5058789;28;20216;-71
2022/03/28 10:56:02;;;;;;;21.60;14.53;;;;;;;17.35;nan;98606.97;5059011;28;20709;-71
2022/03/28 10:58:31;;;;;;;17.27;13.80;;;;;;;17.81;nan;98603.81;5058690;28;20229;-71
2022/03/28 11:01:06;;;;;;;22.60;14.47;;;;;;;17.86;nan;98601.19;5059943;28;20213;-71
2022/03/28 11:03:42;;;;;;;20.17;14.33;;;;;;;17.82;nan;98591.19;5059234;28;20205;-71
2022/03/28 11:06:08;;;;;;;22.13;13.67;;;;;;;17.96;nan;98587.84;5059274;28;20196;-71
2022/03/28 11:08:36;;;;;;;19.93;13.93;;;;;;;18.36;nan;98593.66;5058860;28;20225;-71
2022/03/28 11:11:20;;;;;;;22.67;14.17;;;;;;;18.47;nan;98583.78;5058664;28;20276;-71
2022/03/28 11:14:02;;;;;;;22.10;14.63;;;;;;;18.47;nan;98578.41;5058767;28;20663;-71
2022/03/28 11:16:51;;;;;;;17.97;14.07;;;;;;;18.71;nan;98582.34;5058953;28;20259;-72
2022/03/28 11:19:34;;;;;;;20.10;13.67;;;;;;;18.35;nan;98577.75;5058597;28;20232;-71
2022/03/28 11:22:03;;;;;;;21.97;13.83;;;;;;;18.48;nan;98577.31;5058586;28;20589;-72
2022/03/28 11:24:51;;;;;;;22.07;14.03;;;;;;;17.99;nan;98576.56;5058571;28;20201;-71
2022/03/28 11:27:20;;;;;;;26.17;13.60;;;;;;;18.31;nan;98566.66;5054980;28;20221;-72
2022/03/28 11:29:47;;;;;;;20.47;14.10;;;;;;;18.12;nan;98564.59;5055728;28;20224;-72
2022/03/28 11:32:16;;;;;;;20.83;13.87;;;;;;;18.23;nan;98550.16;5055818;28;20209;-71
2022/03/28 11:34:52;;;;;;;21.43;15.17;;;;;;;18.13;nan;98553.56;5055672;28;20215;-71
2022/03/28 11:37:24;;;;;;;21.60;15.57;;;;;;;18.11;nan;98550.34;5055642;28;20692;-71
2022/03/28 11:40:04;;;;;;;19.87;13.77;;;;;;;18.58;nan;98540.53;5055322;28;20585;-71
2022/03/28 11:42:34;;;;;;;17.17;14.10;;;;;;;18.62;nan;98540.81;5055259;28;20586;-71
2022/03/28 11:45:12;;;;;;;23.50;14.63;;;;;;;18.72;nan;98536.31;5055120;28;20746;-70
2022/03/28 11:47:50;;;;;;;19.07;14.53;;;;;;;18.83;nan;98542.59;5055443;28;20220;-72
2022/03/28 11:50:16;;;;;;;22.93;14.53;;;;;;;18.85;nan;98530.47;5055231;28;20194;-71
2022/03/28 11:52:50;;;;;;;25.00;14.60;;;;;;;18.84;nan;98526.16;5055526;28;20298;-71